createdAt,value
2018-06-14T00:00:10.221Z,71.02
2018-06-14T00:00:36.367Z,71.02
2018-06-14T00:01:02.564Z,71.4
2018-06-14T00:01:28.703Z,71.56
2018-06-14T00:01:54.836Z,71.78
2018-06-14T00:02:20.996Z,71.21
2018-06-14T00:02:47.135Z,71.69
2018-06-14T00:03:13.277Z,71.21
2018-06-14T00:03:39.434Z,71.17
2018-06-14T00:04:05.573Z,71.37
2018-06-14T00:04:31.710Z,71.27
2018-06-14T00:04:57.851Z,71.27
2018-06-14T00:05:24.015Z,71.37
2018-06-14T00:05:50.176Z,71.17
2018-06-14T00:06:16.319Z,71.21
2018-06-14T00:06:42.459Z,71.46
2018-06-14T00:07:08.927Z,72.03
2018-06-14T00:07:35.464Z,71.94
2018-06-14T00:08:01.787Z,71.98
2018-06-14T00:08:27.922Z,72.03
2018-06-14T00:08:54.062Z,71.46
2018-06-14T00:09:20.193Z,71.27
2018-06-14T00:09:46.329Z,71.75
2018-06-14T00:10:12.475Z,71.56
2018-06-14T00:10:38.624Z,71.66
2018-06-14T00:11:04.790Z,71.66
2018-06-14T00:11:30.928Z,71.66
2018-06-14T00:11:57.059Z,71.75
2018-06-14T00:12:23.196Z,71.46
2018-06-14T00:12:49.335Z,71.75
2018-06-14T00:13:15.512Z,71.56
2018-06-14T00:13:41.648Z,71.66
2018-06-14T00:14:07.790Z,71.84
2018-06-14T00:14:33.949Z,71.56
2018-06-14T00:15:00.098Z,72.32
2018-06-14T00:15:26.284Z,72.13
2018-06-14T00:15:52.418Z,72.23
2018-06-14T00:16:18.561Z,72.42
2018-06-14T00:16:44.699Z,72.23
2018-06-14T00:17:10.836Z,72.23
2018-06-14T00:17:36.975Z,72.13
2018-06-14T00:18:03.112Z,72.23
2018-06-14T00:18:29.297Z,72.42
2018-06-14T00:18:55.434Z,72.32
2018-06-14T00:19:21.569Z,72.52
2018-06-14T00:19:47.710Z,72.61
2018-06-14T00:20:13.895Z,72.13
2018-06-14T00:20:40.035Z,72.42
2018-06-14T00:21:06.177Z,72.13
2018-06-14T00:21:32.307Z,72.13
2018-06-14T00:21:58.443Z,72.13
2018-06-14T00:22:24.611Z,71.94
2018-06-14T00:22:50.757Z,72.23
2018-06-14T00:23:16.889Z,72.61
2018-06-14T00:23:43.051Z,72.61
2018-06-14T00:24:09.191Z,71.94
2018-06-14T00:24:35.335Z,72.52
2018-06-14T00:25:01.470Z,72.13
2018-06-14T00:25:27.605Z,72.52
2018-06-14T00:25:53.751Z,72.61
2018-06-14T00:26:19.893Z,72.71
2018-06-14T00:26:46.024Z,72.9
2018-06-14T00:27:12.166Z,72.61
2018-06-14T00:27:38.316Z,72.52
2018-06-14T00:28:04.452Z,72.71
2018-06-14T00:28:30.595Z,72.71
2018-06-14T00:28:56.768Z,72.38
2018-06-14T00:29:22.906Z,72.32
2018-06-14T00:29:49.047Z,72.42
2018-06-14T00:30:15.182Z,72.71
2018-06-14T00:30:41.320Z,72.8
2018-06-14T00:31:07.459Z,72.71
2018-06-14T00:31:33.619Z,72.38
2018-06-14T00:31:59.760Z,72.8
2018-06-14T00:32:25.898Z,72.52
2018-06-14T00:32:52.067Z,72.32
2018-06-14T00:33:18.203Z,72.61
2018-06-14T00:33:44.365Z,72.61
2018-06-14T00:34:10.525Z,72.8
2018-06-14T00:34:36.673Z,72.9
2018-06-14T00:35:02.814Z,73.47
2018-06-14T00:35:28.950Z,73.47
2018-06-14T00:35:55.091Z,73.28
2018-06-14T00:36:21.245Z,72.99
2018-06-14T00:36:47.390Z,73.47
2018-06-14T00:37:13.546Z,73.15
2018-06-14T00:37:39.710Z,73.28
2018-06-14T00:38:05.848Z,73.19
2018-06-14T00:38:31.989Z,73.34
2018-06-14T00:38:58.132Z,73.24
2018-06-14T00:39:24.294Z,73.05
2018-06-14T00:39:50.432Z,72.96
2018-06-14T00:40:16.574Z,73.15
2018-06-14T00:40:42.707Z,73.34
2018-06-14T00:41:08.850Z,73.15
2018-06-14T00:41:34.994Z,73.24
2018-06-14T00:42:01.128Z,73.44
2018-06-14T00:42:27.267Z,73.63
2018-06-14T00:42:53.413Z,74.01
2018-06-14T00:43:19.576Z,74.01
2018-06-14T00:43:45.711Z,73.91
2018-06-14T00:44:11.887Z,73.82
2018-06-14T00:44:38.026Z,73.82
2018-06-14T00:45:04.167Z,74.01
2018-06-14T00:45:30.324Z,73.82
2018-06-14T00:45:56.460Z,73.82
2018-06-14T00:46:22.619Z,73.63
2018-06-14T00:46:48.766Z,73.82
2018-06-14T00:47:14.905Z,73.82
2018-06-14T00:47:41.038Z,73.34
2018-06-14T00:48:07.178Z,73.44
2018-06-14T00:48:33.330Z,73.44
2018-06-14T00:48:59.491Z,73.44
2018-06-14T00:49:25.630Z,74.01
2018-06-14T00:49:51.764Z,73.91
2018-06-14T00:50:17.928Z,74.01
2018-06-14T00:50:44.123Z,74.01
2018-06-14T00:51:10.279Z,73.91
2018-06-14T00:51:36.416Z,74.11
2018-06-14T00:52:02.556Z,74.01
2018-06-14T00:52:28.697Z,73.72
2018-06-14T00:52:54.838Z,73.24
2018-06-14T00:53:20.978Z,73.82
2018-06-14T00:53:47.110Z,73.24
2018-06-14T00:54:13.268Z,73.82
2018-06-14T00:54:39.407Z,73.82
2018-06-14T00:55:05.548Z,73.91
2018-06-14T00:55:31.687Z,73.72
2018-06-14T00:55:57.846Z,74.01
2018-06-14T00:56:23.986Z,73.82
2018-06-14T00:56:50.125Z,73.72
2018-06-14T00:57:16.262Z,74.01
2018-06-14T00:57:42.406Z,73.82
2018-06-14T00:58:08.587Z,73.72
2018-06-14T00:58:34.728Z,73.63
2018-06-14T00:59:00.878Z,73.82
2018-06-14T00:59:27.017Z,73.72
2018-06-14T00:59:53.159Z,73.91
2018-06-14T01:00:19.293Z,73.82
2018-06-14T01:00:45.437Z,73.72
2018-06-14T01:01:11.569Z,73.82
2018-06-14T01:01:37.717Z,73.82
2018-06-14T01:02:03.871Z,74.11
2018-06-14T01:02:30.011Z,74.11
2018-06-14T01:02:56.150Z,74.2
2018-06-14T01:03:22.283Z,74.3
2018-06-14T01:03:48.420Z,74.01
2018-06-14T01:04:14.562Z,73.91
2018-06-14T01:04:40.700Z,74.4
2018-06-14T01:05:06.840Z,73.91
2018-06-14T01:05:33.010Z,74.2
2018-06-14T01:05:59.138Z,74.3
2018-06-14T01:06:25.283Z,74.49
2018-06-14T01:06:51.468Z,74.01
2018-06-14T01:07:17.636Z,74.4
2018-06-14T01:07:43.770Z,74.2
2018-06-14T01:08:09.903Z,74.87
2018-06-14T01:08:36.045Z,74.87
2018-06-14T01:09:02.205Z,74.49
2018-06-14T01:09:28.393Z,74.3
2018-06-14T01:09:54.564Z,74.68
2018-06-14T01:10:20.667Z,74.58
2018-06-14T01:10:46.803Z,74.68
2018-06-14T01:11:12.942Z,74.68
2018-06-14T01:11:39.089Z,74.4
2018-06-14T01:12:05.233Z,74.97
2018-06-14T01:12:31.370Z,74.87
2018-06-14T01:12:57.506Z,74.87
2018-06-14T01:13:23.648Z,75.07
2018-06-14T01:13:49.782Z,74.97
2018-06-14T01:14:15.924Z,74.77
2018-06-14T01:14:42.058Z,74.68
2018-06-14T01:15:08.218Z,74.68
2018-06-14T01:15:34.359Z,75.45
2018-06-14T01:16:00.495Z,74.97
2018-06-14T01:16:26.663Z,74.97
2018-06-14T01:16:52.795Z,74.87
2018-06-14T01:17:18.935Z,74.97
2018-06-14T01:17:45.075Z,75.26
2018-06-14T01:18:11.231Z,75.07
2018-06-14T01:18:37.367Z,75.16
2018-06-14T01:19:03.508Z,75.35
2018-06-14T01:19:29.672Z,75.26
2018-06-14T01:19:55.813Z,75.35
2018-06-14T01:20:21.948Z,75.64
2018-06-14T01:20:48.089Z,75.45
2018-06-14T01:21:14.227Z,75.98
2018-06-14T01:21:40.358Z,75.83
2018-06-14T01:22:06.552Z,75.73
2018-06-14T01:22:32.692Z,75.31
2018-06-14T01:22:58.839Z,75.79
2018-06-14T01:23:24.995Z,75.41
2018-06-14T01:23:51.133Z,75.6
2018-06-14T01:24:17.288Z,75.51
2018-06-14T01:24:43.430Z,75.31
2018-06-14T01:25:09.559Z,75.79
2018-06-14T01:25:35.697Z,76.27
2018-06-14T01:26:01.865Z,75.22
2018-06-14T01:26:27.997Z,75.12
2018-06-14T01:26:54.157Z,75.02
2018-06-14T01:27:20.295Z,75.31
2018-06-14T01:27:46.426Z,75.7
2018-06-14T01:28:12.571Z,75.89
2018-06-14T01:28:38.733Z,75.89
2018-06-14T01:29:04.875Z,76.08
2018-06-14T01:29:31.012Z,75.89
2018-06-14T01:29:57.151Z,75.98
2018-06-14T01:30:23.310Z,76.37
2018-06-14T01:30:49.456Z,76.08
2018-06-14T01:31:15.596Z,76.75
2018-06-14T01:31:41.737Z,76.37
2018-06-14T01:32:07.872Z,76.75
2018-06-14T01:32:34.011Z,76.75
2018-06-14T01:33:00.157Z,76.65
2018-06-14T01:33:26.301Z,76.75
2018-06-14T01:33:52.459Z,76.94
2018-06-14T01:34:18.605Z,76.56
2018-06-14T01:34:44.782Z,76.94
2018-06-14T01:35:10.917Z,76.56
2018-06-14T01:35:37.059Z,76.46
2018-06-14T01:36:03.193Z,77.13
2018-06-14T01:36:29.339Z,77.33
2018-06-14T01:36:55.502Z,77.23
2018-06-14T01:37:21.643Z,77.13
2018-06-14T01:37:47.785Z,77.23
2018-06-14T01:38:13.923Z,77.13
2018-06-14T01:38:40.059Z,77.04
2018-06-14T01:39:06.195Z,77.33
2018-06-14T01:39:32.339Z,77.33
2018-06-14T01:39:58.502Z,77.42
2018-06-14T01:40:24.641Z,77.51
2018-06-14T01:40:50.806Z,77.51
2018-06-14T01:41:16.939Z,77.8
2018-06-14T01:41:43.118Z,78.19
2018-06-14T01:42:09.260Z,78.19
2018-06-14T01:42:35.396Z,77.99
2018-06-14T01:43:01.531Z,78.28
2018-06-14T01:43:27.665Z,77.8
2018-06-14T01:43:53.826Z,77.8
2018-06-14T01:44:19.965Z,77.8
2018-06-14T01:44:46.128Z,78.19
2018-06-14T01:45:12.284Z,78.76
2018-06-14T01:45:38.428Z,78.66
2018-06-14T01:46:04.629Z,78.66
2018-06-14T01:46:30.763Z,78.47
2018-06-14T01:46:56.902Z,78.57
2018-06-14T01:47:23.044Z,78.66
2018-06-14T01:47:49.213Z,78.19
2018-06-14T01:48:15.359Z,78.76
2018-06-14T01:48:41.521Z,78.47
2018-06-14T01:49:07.659Z,79.14
2018-06-14T01:49:33.803Z,78.95
2018-06-14T01:49:59.940Z,78.66
2018-06-14T01:50:26.078Z,78.95
2018-06-14T01:50:52.245Z,78.38
2018-06-14T01:51:18.407Z,78.57
2018-06-14T01:51:44.542Z,78.66
2018-06-14T01:52:10.704Z,78.76
2018-06-14T01:52:36.835Z,79.05
2018-06-14T01:53:02.996Z,79.14
2018-06-14T01:53:29.149Z,78.95
2018-06-14T01:53:55.316Z,78.81
2018-06-14T01:54:21.456Z,79.05
2018-06-14T01:54:47.590Z,78.76
2018-06-14T01:55:13.725Z,78.76
2018-06-14T01:55:39.864Z,78.86
2018-06-14T01:56:06.046Z,78.86
2018-06-14T01:56:32.189Z,78.86
2018-06-14T01:56:58.348Z,78.86
2018-06-14T01:57:24.489Z,78.86
2018-06-14T01:57:50.629Z,79.14
2018-06-14T01:58:16.771Z,78.95
2018-06-14T01:58:42.905Z,78.76
2018-06-14T01:59:09.048Z,78.95
2018-06-14T01:59:35.184Z,79.05
2018-06-14T02:00:01.329Z,78.95
2018-06-14T02:00:27.458Z,78.86
2018-06-14T02:00:53.629Z,78.76
2018-06-14T02:01:19.778Z,78.86
2018-06-14T02:01:45.935Z,78.86
2018-06-14T02:02:12.072Z,78.95
2018-06-14T02:02:38.215Z,78.76
2018-06-14T02:03:04.380Z,78.95
2018-06-14T02:03:30.521Z,79.05
2018-06-14T02:03:56.654Z,78.66
2018-06-14T02:04:22.796Z,78.76
2018-06-14T02:04:48.927Z,78.95
2018-06-14T02:05:15.071Z,78.76
2018-06-14T02:05:41.227Z,79.05
2018-06-14T02:06:07.417Z,78.76
2018-06-14T02:06:33.551Z,78.95
2018-06-14T02:06:59.716Z,78.95
2018-06-14T02:07:25.879Z,78.86
2018-06-14T02:07:52.017Z,78.86
2018-06-14T02:08:18.149Z,78.86
2018-06-14T02:08:44.285Z,78.95
2018-06-14T02:09:10.422Z,78.86
2018-06-14T02:09:36.556Z,78.86
2018-06-14T02:10:02.694Z,78.95
2018-06-14T02:10:28.835Z,78.86
2018-06-14T02:10:54.976Z,78.86
2018-06-14T02:11:21.112Z,79.14
2018-06-14T02:11:47.249Z,78.86
2018-06-14T02:12:13.400Z,79.14
2018-06-14T02:12:39.532Z,79.24
2018-06-14T02:13:05.672Z,79.05
2018-06-14T02:13:31.847Z,78.95
2018-06-14T02:13:57.975Z,78.91
2018-06-14T02:14:24.110Z,79.1
2018-06-14T02:14:50.253Z,79.58
2018-06-14T02:15:16.389Z,79.49
2018-06-14T02:15:42.524Z,79.43
2018-06-14T02:16:08.664Z,79.33
2018-06-14T02:16:34.818Z,79.39
2018-06-14T02:17:00.961Z,78.95
2018-06-14T02:17:27.118Z,79.49
2018-06-14T02:17:53.256Z,79.24
2018-06-14T02:18:19.394Z,79.2
2018-06-14T02:18:45.534Z,78.91
2018-06-14T02:19:11.718Z,79.24
2018-06-14T02:19:37.856Z,79.24
2018-06-14T02:20:03.993Z,79.14
2018-06-14T02:20:30.129Z,79
2018-06-14T02:20:56.265Z,79.05
2018-06-14T02:21:22.401Z,79.05
2018-06-14T02:21:48.552Z,79
2018-06-14T02:22:14.684Z,79.1
2018-06-14T02:22:40.827Z,79.05
2018-06-14T02:23:06.992Z,79.1
2018-06-14T02:23:33.157Z,79.58
2018-06-14T02:23:59.291Z,79.58
2018-06-14T02:24:25.432Z,79.39
2018-06-14T02:24:51.574Z,79.77
2018-06-14T02:25:17.712Z,79.77
2018-06-14T02:25:43.851Z,79.58
2018-06-14T02:26:09.988Z,79.68
2018-06-14T02:26:36.155Z,79.72
2018-06-14T02:27:02.288Z,79.81
2018-06-14T02:27:28.426Z,79.77
2018-06-14T02:27:54.590Z,79.58
2018-06-14T02:28:20.728Z,79.96
2018-06-14T02:28:46.868Z,80.63
2018-06-14T02:29:13.099Z,80.35
2018-06-14T02:29:39.239Z,80.25
2018-06-14T02:30:05.406Z,80.73
2018-06-14T02:30:31.553Z,80.82
2018-06-14T02:30:57.698Z,80.16
2018-06-14T02:31:23.827Z,80.54
2018-06-14T02:31:50.015Z,80.25
2018-06-14T02:32:16.175Z,80.54
2018-06-14T02:32:42.368Z,80.35
2018-06-14T02:33:08.535Z,80.54
2018-06-14T02:33:34.673Z,80.35
2018-06-14T02:34:00.837Z,80.73
2018-06-14T02:34:27.020Z,80.06
2018-06-14T02:34:53.159Z,80.35
2018-06-14T02:35:19.298Z,80.54
2018-06-14T02:35:45.435Z,79.87
2018-06-14T02:36:11.573Z,80.35
2018-06-14T02:36:37.732Z,80.06
2018-06-14T02:37:03.882Z,80.06
2018-06-14T02:37:30.023Z,79.58
2018-06-14T02:37:56.189Z,79.68
2018-06-14T02:38:22.362Z,79.68
2018-06-14T02:38:48.530Z,79.96
2018-06-14T02:39:14.695Z,80.16
2018-06-14T02:39:40.886Z,79.96
2018-06-14T02:40:07.044Z,80.35
2018-06-14T02:40:33.222Z,80.06
2018-06-14T02:40:59.409Z,79.96
2018-06-14T02:41:25.574Z,80.06
2018-06-14T02:41:51.753Z,80.25
2018-06-14T02:42:17.897Z,79.87
2018-06-14T02:42:44.066Z,80.16
2018-06-14T02:43:10.234Z,80.25
2018-06-14T02:43:36.369Z,80.35
2018-06-14T02:44:02.577Z,80.54
2018-06-14T02:44:28.740Z,80.44
2018-06-14T02:44:54.897Z,80.63
2018-06-14T02:45:21.048Z,80.82
2018-06-14T02:45:47.231Z,80.73
2018-06-14T02:46:13.425Z,80.73
2018-06-14T02:46:39.584Z,80.73
2018-06-14T02:47:05.718Z,80.35
2018-06-14T02:47:31.862Z,80.25
2018-06-14T02:47:58.019Z,80.35
2018-06-14T02:48:24.153Z,80.16
2018-06-14T02:48:50.323Z,80.44
2018-06-14T02:49:16.489Z,80.35
2018-06-14T02:49:42.654Z,80.35
2018-06-14T02:50:08.790Z,80.35
2018-06-14T02:50:34.988Z,80.35
2018-06-14T02:51:01.123Z,80.54
2018-06-14T02:51:27.277Z,80.73
2018-06-14T02:51:53.472Z,80.54
2018-06-14T02:52:19.614Z,80.82
2018-06-14T02:52:45.784Z,80.35
2018-06-14T02:53:11.923Z,80.16
2018-06-14T02:53:38.102Z,80.35
2018-06-14T02:54:04.238Z,80.44
2018-06-14T02:54:30.412Z,80.25
2018-06-14T02:54:56.575Z,80.63
2018-06-14T02:55:22.744Z,80.44
2018-06-14T02:55:48.880Z,80.35
2018-06-14T02:56:15.041Z,80.44
2018-06-14T02:56:41.205Z,80.16
2018-06-14T02:57:07.365Z,80.35
2018-06-14T02:57:33.566Z,81.11
2018-06-14T02:57:59.752Z,81.21
2018-06-14T02:58:25.887Z,80.82
2018-06-14T02:58:52.057Z,80.82
2018-06-14T02:59:18.229Z,80.82
2018-06-14T02:59:44.391Z,80.73
2018-06-14T03:00:10.610Z,80.21
2018-06-14T03:00:36.844Z,80.5
2018-06-14T03:01:03.125Z,80.35
2018-06-14T03:01:29.493Z,80.35
2018-06-14T03:01:55.755Z,80.82
2018-06-14T03:02:21.940Z,80.73
2018-06-14T03:02:48.244Z,80.92
2018-06-14T03:03:14.476Z,80.82
2018-06-14T03:03:40.725Z,81.11
2018-06-14T03:04:06.918Z,81.02
2018-06-14T03:04:33.080Z,81.21
2018-06-14T03:04:59.266Z,80.82
2018-06-14T03:05:25.403Z,80.63
2018-06-14T03:05:51.557Z,81.02
2018-06-14T03:06:17.749Z,80.92
2018-06-14T03:06:43.898Z,80.59
2018-06-14T03:07:10.122Z,81.02
2018-06-14T03:07:36.252Z,80.63
2018-06-14T03:08:02.425Z,80.88
2018-06-14T03:08:28.615Z,80.59
2018-06-14T03:08:54.753Z,80.59
2018-06-14T03:09:20.886Z,81.07
2018-06-14T03:09:47.076Z,81.26
2018-06-14T03:10:13.221Z,81.45
2018-06-14T03:10:39.393Z,81.07
2018-06-14T03:11:05.551Z,81.16
2018-06-14T03:11:31.687Z,81.21
2018-06-14T03:11:57.876Z,81.45
2018-06-14T03:12:24.059Z,81.68
2018-06-14T03:12:50.223Z,80.69
2018-06-14T03:13:16.385Z,81.45
2018-06-14T03:13:42.546Z,81.55
2018-06-14T03:14:08.689Z,81.36
2018-06-14T03:14:34.856Z,81.45
2018-06-14T03:15:01.045Z,81.36
2018-06-14T03:15:27.217Z,81.16
2018-06-14T03:15:53.390Z,81.55
2018-06-14T03:16:19.593Z,81.65
2018-06-14T03:16:45.792Z,81.45
2018-06-14T03:17:11.957Z,82.03
2018-06-14T03:17:38.101Z,81.26
2018-06-14T03:18:04.239Z,81.55
2018-06-14T03:18:30.379Z,81.26
2018-06-14T03:18:56.536Z,81.55
2018-06-14T03:19:22.729Z,81.55
2018-06-14T03:19:48.885Z,81.45
2018-06-14T03:20:15.023Z,81.55
2018-06-14T03:20:41.192Z,81.55
2018-06-14T03:21:07.332Z,81.45
2018-06-14T03:21:33.497Z,81.36
2018-06-14T03:21:59.654Z,81.26
2018-06-14T03:22:25.788Z,81.45
2018-06-14T03:22:51.926Z,81.45
2018-06-14T03:23:18.084Z,81.45
2018-06-14T03:23:44.268Z,81.55
2018-06-14T03:24:10.412Z,81.45
2018-06-14T03:24:36.548Z,81.45
2018-06-14T03:25:02.686Z,81.45
2018-06-14T03:25:28.829Z,81.07
2018-06-14T03:25:54.960Z,81.26
2018-06-14T03:26:21.102Z,81.07
2018-06-14T03:26:47.262Z,81.26
2018-06-14T03:27:13.402Z,80.98
2018-06-14T03:27:39.540Z,80.98
2018-06-14T03:28:05.673Z,81.16
2018-06-14T03:28:31.819Z,81.16
2018-06-14T03:28:57.977Z,81.45
2018-06-14T03:29:24.141Z,81.45
2018-06-14T03:29:50.272Z,81.55
2018-06-14T03:30:16.483Z,81.55
2018-06-14T03:30:42.663Z,81.55
2018-06-14T03:31:08.818Z,81.65
2018-06-14T03:31:34.962Z,80.59
2018-06-14T03:32:01.099Z,81.55
2018-06-14T03:32:27.234Z,81.36
2018-06-14T03:32:53.368Z,81.55
2018-06-14T03:33:19.532Z,80.59
2018-06-14T03:33:45.673Z,80.5
2018-06-14T03:34:11.832Z,80.69
2018-06-14T03:34:38.022Z,80.69
2018-06-14T03:35:04.179Z,80.79
2018-06-14T03:35:30.311Z,80.59
2018-06-14T03:35:56.451Z,80.59
2018-06-14T03:36:22.625Z,80.59
2018-06-14T03:36:48.762Z,80.69
2018-06-14T03:37:14.900Z,80.79
2018-06-14T03:37:41.057Z,80.88
2018-06-14T03:38:07.224Z,81.07
2018-06-14T03:38:33.406Z,80.98
2018-06-14T03:38:59.546Z,81.07
2018-06-14T03:39:25.691Z,80.79
2018-06-14T03:39:51.826Z,80.98
2018-06-14T03:40:17.966Z,80.79
2018-06-14T03:40:44.137Z,81.16
2018-06-14T03:41:10.248Z,80.98
2018-06-14T03:41:36.382Z,80.79
2018-06-14T03:42:02.521Z,81.07
2018-06-14T03:42:28.680Z,80.98
2018-06-14T03:42:54.868Z,80.98
2018-06-14T03:43:20.960Z,80.98
2018-06-14T03:43:47.099Z,80.79
2018-06-14T03:44:13.235Z,80.69
2018-06-14T03:44:39.377Z,80.98
2018-06-14T03:45:05.509Z,80.88
2018-06-14T03:45:31.653Z,80.98
2018-06-14T03:45:57.793Z,81.16
2018-06-14T03:46:23.986Z,80.98
2018-06-14T03:46:50.061Z,80.79
2018-06-14T03:47:16.225Z,81.07
2018-06-14T03:47:42.439Z,80.98
2018-06-14T03:48:08.526Z,80.98
2018-06-14T03:48:34.687Z,80.69
2018-06-14T03:49:00.855Z,80.59
2018-06-14T03:49:27.009Z,80.5
2018-06-14T03:49:53.151Z,80.4
2018-06-14T03:50:19.292Z,80.4
2018-06-14T03:50:45.446Z,80.11
2018-06-14T03:51:11.620Z,80.21
2018-06-14T03:51:37.747Z,80.21
2018-06-14T03:52:03.889Z,80.4
2018-06-14T03:52:30.052Z,80.3
2018-06-14T03:52:56.182Z,80.4
2018-06-14T03:53:22.322Z,80.5
2018-06-14T03:53:48.481Z,80.4
2018-06-14T03:54:14.616Z,80.21
2018-06-14T03:54:40.782Z,80.59
2018-06-14T03:55:06.924Z,80.5
2018-06-14T03:55:33.057Z,80.4
2018-06-14T03:55:59.228Z,80.5
2018-06-14T03:56:25.364Z,80.02
2018-06-14T03:56:51.533Z,80.21
2018-06-14T03:57:17.699Z,80.3
2018-06-14T03:57:43.836Z,80.3
2018-06-14T03:58:09.969Z,80.5
2018-06-14T03:58:36.136Z,80.21
2018-06-14T03:59:02.270Z,79.83
2018-06-14T03:59:28.432Z,79.73
2018-06-14T03:59:54.566Z,79.93
2018-06-14T04:00:20.706Z,80.11
2018-06-14T04:00:46.874Z,79.64
2018-06-14T04:01:13.010Z,80.3
2018-06-14T04:01:39.151Z,80.3
2018-06-14T04:02:05.305Z,80.3
2018-06-14T04:02:31.442Z,80.5
2018-06-14T04:02:57.583Z,80.21
2018-06-14T04:03:23.726Z,80.3
2018-06-14T04:03:49.864Z,80.3
2018-06-14T04:04:16.021Z,80.3
2018-06-14T04:04:42.159Z,80.11
2018-06-14T04:05:08.304Z,80.5
2018-06-14T04:05:34.432Z,80.3
2018-06-14T04:06:00.570Z,80.21
2018-06-14T04:06:26.709Z,80.3
2018-06-14T04:06:52.853Z,80.21
2018-06-14T04:07:19.015Z,80.3
2018-06-14T04:07:45.176Z,80.5
2018-06-14T04:08:11.336Z,80.5
2018-06-14T04:08:37.494Z,80.4
2018-06-14T04:09:03.630Z,80.11
2018-06-14T04:09:29.775Z,80.4
2018-06-14T04:09:55.906Z,80.5
2018-06-14T04:10:22.099Z,80.3
2018-06-14T04:10:48.205Z,80.21
2018-06-14T04:11:14.339Z,80.4
2018-06-14T04:11:40.483Z,80.4
2018-06-14T04:12:06.616Z,80.3
2018-06-14T04:12:32.756Z,80.21
2018-06-14T04:12:58.890Z,79.93
2018-06-14T04:13:25.031Z,79.83
2018-06-14T04:13:51.173Z,80.02
2018-06-14T04:14:17.307Z,80.4
2018-06-14T04:14:43.444Z,80.3
2018-06-14T04:15:09.578Z,80.3
2018-06-14T04:15:35.742Z,80.21
2018-06-14T04:16:01.882Z,80.5
2018-06-14T04:16:28.024Z,80.21
2018-06-14T04:16:54.159Z,79.93
2018-06-14T04:17:20.294Z,79.83
2018-06-14T04:17:46.460Z,80.11
2018-06-14T04:18:12.589Z,80.11
2018-06-14T04:18:38.771Z,80.11
2018-06-14T04:19:04.861Z,79.77
2018-06-14T04:19:31.006Z,79.96
2018-06-14T04:19:57.148Z,79.96
2018-06-14T04:20:23.289Z,79.96
2018-06-14T04:20:49.442Z,79.77
2018-06-14T04:21:15.577Z,79.77
2018-06-14T04:21:41.746Z,80.06
2018-06-14T04:22:07.902Z,79.77
2018-06-14T04:22:34.048Z,79.77
2018-06-14T04:23:00.183Z,79.49
2018-06-14T04:23:26.322Z,79.87
2018-06-14T04:23:52.462Z,79.58
2018-06-14T04:24:18.603Z,79.2
2018-06-14T04:24:44.739Z,79
2018-06-14T04:25:10.905Z,79.2
2018-06-14T04:25:37.046Z,78.91
2018-06-14T04:26:03.189Z,79.2
2018-06-14T04:26:29.325Z,79.1
2018-06-14T04:26:55.459Z,79.43
2018-06-14T04:27:21.673Z,78.91
2018-06-14T04:27:47.806Z,78.57
2018-06-14T04:28:13.952Z,78.66
2018-06-14T04:28:40.110Z,78.47
2018-06-14T04:29:06.251Z,78.57
2018-06-14T04:29:32.381Z,77.99
2018-06-14T04:29:58.529Z,78.09
2018-06-14T04:30:24.666Z,78.38
2018-06-14T04:30:50.805Z,78.66
2018-06-14T04:31:16.945Z,78.57
2018-06-14T04:31:43.082Z,78.57
2018-06-14T04:32:09.210Z,78.57
2018-06-14T04:32:35.358Z,77.42
2018-06-14T04:33:01.527Z,77.61
2018-06-14T04:33:27.690Z,77.9
2018-06-14T04:33:53.830Z,77.8
2018-06-14T04:34:19.978Z,77.9
2018-06-14T04:34:46.141Z,78.09
2018-06-14T04:35:12.282Z,77.7
2018-06-14T04:35:38.420Z,77.7
2018-06-14T04:36:04.563Z,77.61
2018-06-14T04:36:30.699Z,77.51
2018-06-14T04:36:56.832Z,77.13
2018-06-14T04:37:22.974Z,77.51
2018-06-14T04:37:49.112Z,77.42
2018-06-14T04:38:15.268Z,76.84
2018-06-14T04:38:41.406Z,76.65
2018-06-14T04:39:07.548Z,76.89
2018-06-14T04:39:33.708Z,76.56
2018-06-14T04:39:59.848Z,76.6
2018-06-14T04:40:25.993Z,76.4
2018-06-14T04:40:52.132Z,75.93
2018-06-14T04:41:18.268Z,75.1
2018-06-14T04:41:44.438Z,75.1
2018-06-14T04:42:10.600Z,74.43
2018-06-14T04:42:36.748Z,73.9
2018-06-14T04:43:02.881Z,72.64
2018-06-14T04:43:29.041Z,72.39
2018-06-14T04:43:55.209Z,71.63
2018-06-14T04:44:21.381Z,71.09
2018-06-14T04:44:47.514Z,70.13
2018-06-14T04:45:13.672Z,69.74
2018-06-14T04:45:39.812Z,68.91
2018-06-14T04:46:05.968Z,68.73
2018-06-14T04:46:32.110Z,67.51
2018-06-14T04:46:58.247Z,66.93
2018-06-14T04:47:24.388Z,66.26
2018-06-14T04:47:50.546Z,65.43
2018-06-14T04:48:16.698Z,64.47
2018-06-14T04:48:42.839Z,63.99
2018-06-14T04:49:09.014Z,63.22
2018-06-14T04:49:35.171Z,62.87
2018-06-14T04:50:01.360Z,62.29
2018-06-14T04:50:27.523Z,62.38
2018-06-14T04:50:53.659Z,61.94
2018-06-14T04:51:19.820Z,60.88
2018-06-14T04:51:45.960Z,60.24
2018-06-14T04:52:12.124Z,59.94
2018-06-14T04:52:38.263Z,59.75
2018-06-14T04:53:04.405Z,59.37
2018-06-14T04:53:30.547Z,59.56
2018-06-14T04:53:56.712Z,59.17
2018-06-14T04:54:22.854Z,58.63
2018-06-14T04:54:48.995Z,58.15
2018-06-14T04:55:15.140Z,57.86
2018-06-14T04:55:41.280Z,57.98
2018-06-14T04:56:07.419Z,57.5
2018-06-14T04:56:33.572Z,56.63
2018-06-14T04:56:59.708Z,57.05
2018-06-14T04:57:25.846Z,55.99
2018-06-14T04:57:51.987Z,55.79
2018-06-14T04:58:18.124Z,55.79
2018-06-14T04:58:44.271Z,55.15
2018-06-14T04:59:10.409Z,54.76
2018-06-14T04:59:36.555Z,54.28
2018-06-14T05:00:02.708Z,53.8
2018-06-14T05:00:28.851Z,53.22
2018-06-14T05:00:55.020Z,53.44
2018-06-14T05:01:21.185Z,53.63
2018-06-14T05:01:47.323Z,52.57
2018-06-14T05:02:13.461Z,53.05
2018-06-14T05:02:39.629Z,52.4
2018-06-14T05:03:05.787Z,52.5
2018-06-14T05:03:31.933Z,52.11
2018-06-14T05:03:58.072Z,51.95
2018-06-14T05:04:24.211Z,51.56
2018-06-14T05:04:50.349Z,51.07
2018-06-14T05:05:16.496Z,50.5
2018-06-14T05:05:42.630Z,50.59
2018-06-14T05:06:08.769Z,50.79
2018-06-14T05:06:34.917Z,50.11
2018-06-14T05:07:01.085Z,50.4
2018-06-14T05:07:27.246Z,50.11
2018-06-14T05:07:53.392Z,50.23
2018-06-14T05:08:19.535Z,49.65
2018-06-14T05:08:45.681Z,49.37
2018-06-14T05:09:11.872Z,49.55
2018-06-14T05:09:38.012Z,49.75
2018-06-14T05:10:04.154Z,49.46
2018-06-14T05:10:30.293Z,49.27
2018-06-14T05:10:56.462Z,49.07
2018-06-14T05:11:22.602Z,48.97
2018-06-14T05:11:48.745Z,48.88
2018-06-14T05:12:14.936Z,48.97
2018-06-14T05:12:41.110Z,48.23
2018-06-14T05:13:07.250Z,48.49
2018-06-14T05:13:33.416Z,48.97
2018-06-14T05:13:59.554Z,48.97
2018-06-14T05:14:25.696Z,48.88
2018-06-14T05:14:51.843Z,49.17
2018-06-14T05:15:17.987Z,49.05
2018-06-14T05:15:44.119Z,49.15
2018-06-14T05:16:10.291Z,49.73
2018-06-14T05:16:36.429Z,49.63
2018-06-14T05:17:02.589Z,49.44
2018-06-14T05:17:28.731Z,50.28
2018-06-14T05:17:54.903Z,49.7
2018-06-14T05:18:21.076Z,50.38
2018-06-14T05:18:47.219Z,50.57
2018-06-14T05:19:13.360Z,50.54
2018-06-14T05:19:39.499Z,51.22
2018-06-14T05:20:05.641Z,51.22
2018-06-14T05:20:31.786Z,51.22
2018-06-14T05:20:57.926Z,51.29
2018-06-14T05:21:24.096Z,52.35
2018-06-14T05:21:50.230Z,52.33
2018-06-14T05:22:16.400Z,52.81
2018-06-14T05:22:42.541Z,52.71
2018-06-14T05:23:08.683Z,53.19
2018-06-14T05:23:34.886Z,53.48
2018-06-14T05:24:00.969Z,54.52
2018-06-14T05:24:27.115Z,54.61
2018-06-14T05:24:53.272Z,54.61
2018-06-14T05:25:19.435Z,54.9
2018-06-14T05:25:45.583Z,54.97
2018-06-14T05:26:11.719Z,55.35
2018-06-14T05:26:37.884Z,55.71
2018-06-14T05:27:04.080Z,55.81
2018-06-14T05:27:30.216Z,56.48
2018-06-14T05:27:56.353Z,57.06
2018-06-14T05:28:22.500Z,56.93
2018-06-14T05:28:48.643Z,56.93
2018-06-14T05:29:14.778Z,57.8
2018-06-14T05:29:40.983Z,57.42
2018-06-14T05:30:07.083Z,58.67
2018-06-14T05:30:33.247Z,58.67
2018-06-14T05:30:59.388Z,59.02
2018-06-14T05:31:25.530Z,59.31
2018-06-14T05:31:51.671Z,59.79
2018-06-14T05:32:17.830Z,59.6
2018-06-14T05:32:43.978Z,59.41
2018-06-14T05:33:10.117Z,59.79
2018-06-14T05:33:36.258Z,59.89
2018-06-14T05:34:02.399Z,60.05
2018-06-14T05:34:28.559Z,60.27
2018-06-14T05:34:54.705Z,60.43
2018-06-14T05:35:20.849Z,61.2
2018-06-14T05:35:46.981Z,60.91
2018-06-14T05:36:13.150Z,61.01
2018-06-14T05:36:39.310Z,61.11
2018-06-14T05:37:05.454Z,61.11
2018-06-14T05:37:31.592Z,61.2
2018-06-14T05:37:57.730Z,61.78